sensor_id;sensor_type;location;lat;lon;timestamp;pressure;altitude;pressure_sealevel;temperature;humidity
62402;BME280;48440;51.224;22.506;2023-02-28T00:00:26;100538.91;;;-0.78;51.86
62402;BME280;48440;51.224;22.506;2023-02-28T00:02:55;100534.91;;;-0.82;52.54
62402;BME280;48440;51.224;22.506;2023-02-28T00:05:23;100548.53;;;-0.85;53.14
62402;BME280;48440;51.224;22.506;2023-02-28T00:07:52;100550.09;;;-0.92;53.02
62402;BME280;48440;51.224;22.506;2023-02-28T00:10:27;100542.69;;;-0.98;53.41
62402;BME280;48440;51.224;22.506;2023-02-28T00:12:56;100542.50;;;-1.05;53.87
62402;BME280;48440;51.224;22.506;2023-02-28T00:15:22;100537.75;;;-1.11;54.41
62402;BME280;48440;51.224;22.506;2023-02-28T00:20:35;100539.06;;;-1.24;55.28
62402;BME280;48440;51.224;22.506;2023-02-28T00:23:01;100541.59;;;-1.23;55.42
62402;BME280;48440;51.224;22.506;2023-02-28T00:25:29;100541.59;;;-1.23;55.81
62402;BME280;48440;51.224;22.506;2023-02-28T00:27:58;100541.59;;;-1.23;55.65
62402;BME280;48440;51.224;22.506;2023-02-28T00:30:29;100537.09;;;-1.22;55.45
62402;BME280;48440;51.224;22.506;2023-02-28T00:33:02;100544.13;;;-1.21;55.49
62402;BME280;48440;51.224;22.506;2023-02-28T00:35:30;100538.09;;;-1.23;55.60
62402;BME280;48440;51.224;22.506;2023-02-28T00:38:03;100540.22;;;-1.27;55.57
62402;BME280;48440;51.224;22.506;2023-02-28T00:40:35;100545.53;;;-1.27;55.80
62402;BME280;48440;51.224;22.506;2023-02-28T00:43:01;100535.88;;;-1.28;55.72
62402;BME280;48440;51.224;22.506;2023-02-28T00:45:33;100541.34;;;-1.29;55.47
62402;BME280;48440;51.224;22.506;2023-02-28T00:48:03;100542.94;;;-1.37;56.05
62402;BME280;48440;51.224;22.506;2023-02-28T00:50:32;100544.91;;;-1.39;56.73
62402;BME280;48440;51.224;22.506;2023-02-28T00:52:58;100546.19;;;-1.43;56.99
62402;BME280;48440;51.224;22.506;2023-02-28T00:55:24;100543.66;;;-1.44;57.22
62402;BME280;48440;51.224;22.506;2023-02-28T00:57:50;100539.88;;;-1.42;57.52
62402;BME280;48440;51.224;22.506;2023-02-28T01:00:16;100542.00;;;-1.45;57.11
62402;BME280;48440;51.224;22.506;2023-02-28T01:02:42;100543.81;;;-1.46;57.57
62402;BME280;48440;51.224;22.506;2023-02-28T01:05:15;100545.94;;;-1.49;57.47
62402;BME280;48440;51.224;22.506;2023-02-28T01:07:46;100544.41;;;-1.52;57.24
62402;BME280;48440;51.224;22.506;2023-02-28T01:10:12;100544.16;;;-1.58;57.79
62402;BME280;48440;51.224;22.506;2023-02-28T01:12:37;100543.63;;;-1.62;57.68
62402;BME280;48440;51.224;22.506;2023-02-28T01:15:04;100544.91;;;-1.66;57.56
62402;BME280;48440;51.224;22.506;2023-02-28T01:17:30;100544.91;;;-1.76;58.01
62402;BME280;48440;51.224;22.506;2023-02-28T01:19:56;100537.22;;;-1.79;58.21
62402;BME280;48440;51.224;22.506;2023-02-28T01:22:22;100538.34;;;-1.81;57.94
62402;BME280;48440;51.224;22.506;2023-02-28T01:24:47;100543.00;;;-1.83;58.17
62402;BME280;48440;51.224;22.506;2023-02-28T01:27:13;100538.53;;;-1.83;58.48
62402;BME280;48440;51.224;22.506;2023-02-28T01:29:39;100541.31;;;-1.84;58.11
62402;BME280;48440;51.224;22.506;2023-02-28T01:32:04;100544.28;;;-1.87;58.17
62402;BME280;48440;51.224;22.506;2023-02-28T01:34:30;100536.16;;;-1.86;58.64
62402;BME280;48440;51.224;22.506;2023-02-28T01:36:56;100537.00;;;-1.85;59.55
62402;BME280;48440;51.224;22.506;2023-02-28T01:39:24;100534.75;;;-1.90;59.47
62402;BME280;48440;51.224;22.506;2023-02-28T01:41:50;100535.03;;;-1.93;59.67
62402;BME280;48440;51.224;22.506;2023-02-28T01:47:19;100530.56;;;-1.92;59.56
62402;BME280;48440;51.224;22.506;2023-02-28T01:50:16;100530.41;;;-1.91;59.23
62402;BME280;48440;51.224;22.506;2023-02-28T01:53:16;100534.63;;;-1.88;59.16
62402;BME280;48440;51.224;22.506;2023-02-28T01:55:53;100530.13;;;-1.88;59.36
62402;BME280;48440;51.224;22.506;2023-02-28T01:58:26;100540.50;;;-1.85;59.35
62402;BME280;48440;51.224;22.506;2023-02-28T02:00:54;100535.31;;;-1.86;59.25
62402;BME280;48440;51.224;22.506;2023-02-28T02:03:22;100537.13;;;-1.87;58.91
62402;BME280;48440;51.224;22.506;2023-02-28T02:06:00;100536.44;;;-1.89;59.56
62402;BME280;48440;51.224;22.506;2023-02-28T02:08:28;100546.25;;;-1.89;59.56
62402;BME280;48440;51.224;22.506;2023-02-28T02:10:59;100546.53;;;-1.92;60.20
62402;BME280;48440;51.224;22.506;2023-02-28T02:13:42;100545.28;;;-1.98;60.84
62402;BME280;48440;51.224;22.506;2023-02-28T02:21:57;100549.34;;;-2.03;61.31
62402;BME280;48440;51.224;22.506;2023-02-28T02:41:33;100571.66;;;-2.24;61.33
62402;BME280;48440;51.224;22.506;2023-02-28T02:50:43;100584.66;;;-2.21;61.80
62402;BME280;48440;51.224;22.506;2023-02-28T02:53:12;100583.69;;;-2.20;61.73
62402;BME280;48440;51.224;22.506;2023-02-28T02:55:43;100580.03;;;-2.19;62.07
62402;BME280;48440;51.224;22.506;2023-02-28T02:58:14;100584.38;;;-2.18;61.93
62402;BME280;48440;51.224;22.506;2023-02-28T03:00:54;100582.13;;;-2.22;62.42
62402;BME280;48440;51.224;22.506;2023-02-28T03:03:23;100581.31;;;-2.23;62.38
62402;BME280;48440;51.224;22.506;2023-02-28T03:05:56;100579.47;;;-2.22;62.65
62402;BME280;48440;51.224;22.506;2023-02-28T03:08:22;100570.66;;;-2.23;62.70
62402;BME280;48440;51.224;22.506;2023-02-28T03:10:55;100562.53;;;-2.21;63.05
62402;BME280;48440;51.224;22.506;2023-02-28T03:24:27;100577.97;;;-2.34;63.44
62402;BME280;48440;51.224;22.506;2023-02-28T03:32:28;100576.69;;;-2.50;63.78
62402;BME280;48440;51.224;22.506;2023-02-28T03:35:25;100585.09;;;-2.54;63.57
62402;BME280;48440;51.224;22.506;2023-02-28T03:38:04;100577.69;;;-2.51;63.79
62402;BME280;48440;51.224;22.506;2023-02-28T03:40:32;100587.34;;;-2.50;63.69
62402;BME280;48440;51.224;22.506;2023-02-28T03:43:04;100580.75;;;-2.55;63.61
62402;BME280;48440;51.224;22.506;2023-02-28T03:45:35;100586.19;;;-2.57;63.56
62402;BME280;48440;51.224;22.506;2023-02-28T03:50:46;100590.81;;;-2.59;63.60
62402;BME280;48440;51.224;22.506;2023-02-28T03:53:28;100590.69;;;-2.57;63.72
62402;BME280;48440;51.224;22.506;2023-02-28T03:59:22;100591.81;;;-2.60;63.29
62402;BME280;48440;51.224;22.506;2023-02-28T04:01:36;100593.06;;;-2.54;63.10
62402;BME280;48440;51.224;22.506;2023-02-28T04:04:04;100592.09;;;-2.53;62.73
62402;BME280;48440;51.224;22.506;2023-02-28T04:06:31;100594.47;;;-2.50;62.99
62402;BME280;48440;51.224;22.506;2023-02-28T04:08:58;100592.78;;;-2.42;62.96
62402;BME280;48440;51.224;22.506;2023-02-28T04:11:33;100595.47;;;-2.42;63.16
62402;BME280;48440;51.224;22.506;2023-02-28T04:14:06;100600.63;;;-2.40;63.04
62402;BME280;48440;51.224;22.506;2023-02-28T04:16:33;100592.22;;;-2.45;63.56
62402;BME280;48440;51.224;22.506;2023-02-28T04:19:00;100596.00;;;-2.48;63.48
62402;BME280;48440;51.224;22.506;2023-02-28T04:21:35;100591.09;;;-2.52;63.42
62402;BME280;48440;51.224;22.506;2023-02-28T04:24:02;100600.06;;;-2.53;63.55
62402;BME280;48440;51.224;22.506;2023-02-28T04:26:32;100593.06;;;-2.54;63.69
62402;BME280;48440;51.224;22.506;2023-02-28T04:28:59;100603.00;;;-2.56;63.58
62402;BME280;48440;51.224;22.506;2023-02-28T04:31:25;100602.28;;;-2.58;64.08
62402;BME280;48440;51.224;22.506;2023-02-28T04:33:50;100595.47;;;-2.61;64.43
62402;BME280;48440;51.224;22.506;2023-02-28T04:36:17;100603.69;;;-2.54;64.29
62402;BME280;48440;51.224;22.506;2023-02-28T04:39:15;100603.69;;;-2.54;64.02
62402;BME280;48440;51.224;22.506;2023-02-28T04:41:50;100606.34;;;-2.54;63.61
62402;BME280;48440;51.224;22.506;2023-02-28T04:44:21;100606.75;;;-2.59;64.01
62402;BME280;48440;51.224;22.506;2023-02-28T04:47:05;100593.78;;;-2.62;63.96
62402;BME280;48440;51.224;22.506;2023-02-28T04:49:38;100598.25;;;-2.62;63.92
62402;BME280;48440;51.224;22.506;2023-02-28T04:52:05;100598.78;;;-2.59;64.12
62402;BME280;48440;51.224;22.506;2023-02-28T04:54:48;100598.38;;;-2.54;63.49
62402;BME280;48440;51.224;22.506;2023-02-28T05:03:20;100603.44;;;-2.61;63.43
62402;BME280;48440;51.224;22.506;2023-02-28T05:08:47;100613.50;;;-2.64;63.49
62402;BME280;48440;51.224;22.506;2023-02-28T05:13:48;100614.47;;;-2.65;63.81
62402;BME280;48440;51.224;22.506;2023-02-28T05:16:15;100617.84;;;-2.63;63.83
62402;BME280;48440;51.224;22.506;2023-02-28T05:18:42;100614.19;;;-2.53;62.48
62402;BME280;48440;51.224;22.506;2023-02-28T05:21:40;100611.69;;;-2.45;61.47
62402;BME280;48440;51.224;22.506;2023-02-28T05:24:11;100608.19;;;-2.45;62.15
62402;BME280;48440;51.224;22.506;2023-02-28T05:26:39;100608.19;;;-2.45;62.28
62402;BME280;48440;51.224;22.506;2023-02-28T05:29:05;100620.63;;;-2.46;62.35
62402;BME280;48440;51.224;22.506;2023-02-28T05:31:31;100616.44;;;-2.48;62.62
62402;BME280;48440;51.224;22.506;2023-02-28T05:34:00;100621.06;;;-2.50;63.18
62402;BME280;48440;51.224;22.506;2023-02-28T05:36:27;100617.28;;;-2.48;63.14
62402;BME280;48440;51.224;22.506;2023-02-28T05:38:53;100616.56;;;-2.50;62.83
62402;BME280;48440;51.224;22.506;2023-02-28T05:41:20;100620.78;;;-2.47;62.92
62402;BME280;48440;51.224;22.506;2023-02-28T05:43:47;100616.84;;;-2.33;61.50
62402;BME280;48440;51.224;22.506;2023-02-28T05:46:15;100613.91;;;-2.30;60.60
62402;BME280;48440;51.224;22.506;2023-02-28T05:48:42;100617.97;;;-2.17;60.40
62402;BME280;48440;51.224;22.506;2023-02-28T05:51:09;100618.41;;;-2.21;60.23
62402;BME280;48440;51.224;22.506;2023-02-28T05:53:35;100621.63;;;-2.18;59.97
62402;BME280;48440;51.224;22.506;2023-02-28T05:56:01;100619.78;;;-2.08;59.78
62402;BME280;48440;51.224;22.506;2023-02-28T05:58:27;100631.25;;;-1.97;59.25
62402;BME280;48440;51.224;22.506;2023-02-28T06:00:56;100631.53;;;-1.91;59.23
62402;BME280;48440;51.224;22.506;2023-02-28T06:03:23;100633.91;;;-1.88;58.50
62402;BME280;48440;51.224;22.506;2023-02-28T06:05:49;100630.66;;;-1.82;58.33
62402;BME280;48440;51.224;22.506;2023-02-28T06:08:16;100632.88;;;-1.77;57.30
62402;BME280;48440;51.224;22.506;2023-02-28T06:10:42;100635.81;;;-1.71;57.03
62402;BME280;48440;51.224;22.506;2023-02-28T06:13:08;100637.38;;;-1.68;57.08
62402;BME280;48440;51.224;22.506;2023-02-28T06:15:34;100642.13;;;-1.62;56.78
62402;BME280;48440;51.224;22.506;2023-02-28T06:18:00;100644.50;;;-1.59;56.88
62402;BME280;48440;51.224;22.506;2023-02-28T06:20:26;100649.50;;;-1.56;56.33
62402;BME280;48440;51.224;22.506;2023-02-28T06:22:56;100652.03;;;-1.54;56.41
62402;BME280;48440;51.224;22.506;2023-02-28T06:25:24;100650.88;;;-1.42;55.91
62402;BME280;48440;51.224;22.506;2023-02-28T06:27:50;100654.25;;;-1.40;55.99
62402;BME280;48440;51.224;22.506;2023-02-28T06:30:16;100658.72;;;-1.41;55.96
62402;BME280;48440;51.224;22.506;2023-02-28T06:32:42;100661.25;;;-1.39;55.53
62402;BME280;48440;51.224;22.506;2023-02-28T06:35:08;100661.25;;;-1.39;55.76
62402;BME280;48440;51.224;22.506;2023-02-28T06:37:34;100662.50;;;-1.33;55.77
62402;BME280;48440;51.224;22.506;2023-02-28T06:39:59;100663.06;;;-1.30;55.83
62402;BME280;48440;51.224;22.506;2023-02-28T06:42:25;100664.41;;;-1.26;55.31
62402;BME280;48440;51.224;22.506;2023-02-28T06:44:57;100667.91;;;-1.25;55.17
62402;BME280;48440;51.224;22.506;2023-02-28T06:47:23;100670.59;;;-1.25;56.45
62402;BME280;48440;51.224;22.506;2023-02-28T06:49:49;100663.50;;;-1.34;57.12
62402;BME280;48440;51.224;22.506;2023-02-28T06:52:15;100670.03;;;-1.29;57.94
62402;BME280;48440;51.224;22.506;2023-02-28T06:54:41;100667.78;;;-1.24;57.85
62402;BME280;48440;51.224;22.506;2023-02-28T06:57:07;100664.81;;;-1.21;58.07
62402;BME280;48440;51.224;22.506;2023-02-28T06:59:33;100668.72;;;-1.15;58.04
62402;BME280;48440;51.224;22.506;2023-02-28T07:02:00;100668.31;;;-1.11;57.80
62402;BME280;48440;51.224;22.506;2023-02-28T07:04:27;100673.19;;;-1.06;57.39
62402;BME280;48440;51.224;22.506;2023-02-28T07:06:54;100673.97;;;-0.96;56.69
62402;BME280;48440;51.224;22.506;2023-02-28T07:09:21;100678.56;;;-0.88;56.48
62402;BME280;48440;51.224;22.506;2023-02-28T07:11:47;100682.91;;;-0.87;55.89
62402;BME280;48440;51.224;22.506;2023-02-28T07:14:13;100684.16;;;-0.82;55.17
62402;BME280;48440;51.224;22.506;2023-02-28T07:16:38;100676.50;;;-0.49;55.13
62402;BME280;48440;51.224;22.506;2023-02-28T07:19:04;100681.66;;;-0.03;53.53
62402;BME280;48440;51.224;22.506;2023-02-28T07:21:30;100678.41;;;0.81;51.40
62402;BME280;48440;51.224;22.506;2023-02-28T07:23:56;100688.41;;;1.47;49.87
62402;BME280;48440;51.224;22.506;2023-02-28T07:26:22;100682.34;;;2.03;48.03
62402;BME280;48440;51.224;22.506;2023-02-28T07:28:50;100675.25;;;2.67;45.88
62402;BME280;48440;51.224;22.506;2023-02-28T07:31:16;100677.25;;;3.37;44.92
62402;BME280;48440;51.224;22.506;2023-02-28T07:33:43;100675.44;;;3.60;44.53
62402;BME280;48440;51.224;22.506;2023-02-28T07:36:11;100668.00;;;3.93;43.38
62402;BME280;48440;51.224;22.506;2023-02-28T07:38:41;100671.41;;;4.48;42.86
62402;BME280;48440;51.224;22.506;2023-02-28T07:41:08;100674.69;;;4.58;41.26
62402;BME280;48440;51.224;22.506;2023-02-28T07:43:34;100668.88;;;4.98;40.76
62402;BME280;48440;51.224;22.506;2023-02-28T07:46:06;100677.03;;;5.34;40.10
62402;BME280;48440;51.224;22.506;2023-02-28T07:48:32;100678.53;;;5.73;39.13
62402;BME280;48440;51.224;22.506;2023-02-28T07:50:59;100682.13;;;5.80;38.64
62402;BME280;48440;51.224;22.506;2023-02-28T07:53:26;100671.44;;;5.87;37.80
62402;BME280;48440;51.224;22.506;2023-02-28T07:56:02;100673.06;;;6.24;37.02
62402;BME280;48440;51.224;22.506;2023-02-28T07:58:29;100669.13;;;6.20;36.75
62402;BME280;48440;51.224;22.506;2023-02-28T08:00:56;100672.03;;;6.46;36.34
62402;BME280;48440;51.224;22.506;2023-02-28T08:03:23;100660.91;;;6.56;35.71
62402;BME280;48440;51.224;22.506;2023-02-28T08:15:42;100652.69;;;8.20;32.99
62402;BME280;48440;51.224;22.506;2023-02-28T08:18:45;100651.44;;;8.03;33.05
62402;BME280;48440;51.224;22.506;2023-02-28T08:21:48;100646.84;;;8.16;32.63
62402;BME280;48440;51.224;22.506;2023-02-28T08:27:41;100645.84;;;8.24;32.45
62402;BME280;48440;51.224;22.506;2023-02-28T08:30:08;100649.34;;;8.18;32.66
62402;BME280;48440;51.224;22.506;2023-02-28T08:32:35;100648.34;;;8.26;33.00
62402;BME280;48440;51.224;22.506;2023-02-28T08:35:00;100654.34;;;8.14;33.01
62402;BME280;48440;51.224;22.506;2023-02-28T08:37:26;100646.22;;;8.14;32.54
62402;BME280;48440;51.224;22.506;2023-02-28T08:39:52;100647.75;;;8.50;32.24
62402;BME280;48440;51.224;22.506;2023-02-28T08:42:18;100641.25;;;8.58;33.94
62402;BME280;48440;51.224;22.506;2023-02-28T08:44:44;100636.50;;;8.53;33.47
62402;BME280;48440;51.224;22.506;2023-02-28T08:47:09;100655.41;;;8.73;33.21
62402;BME280;48440;51.224;22.506;2023-02-28T08:49:35;100646.47;;;8.59;32.45
62402;BME280;48440;51.224;22.506;2023-02-28T08:52:01;100644.97;;;8.17;33.52
62402;BME280;48440;51.224;22.506;2023-02-28T08:54:26;100646.91;;;8.49;32.97
62402;BME280;48440;51.224;22.506;2023-02-28T08:56:55;100648.06;;;7.94;33.57
62402;BME280;48440;51.224;22.506;2023-02-28T08:59:21;100647.09;;;8.41;34.14
62402;BME280;48440;51.224;22.506;2023-02-28T09:01:47;100646.09;;;7.55;34.38
62402;BME280;48440;51.224;22.506;2023-02-28T09:04:12;100648.41;;;6.27;35.87
62402;BME280;48440;51.224;22.506;2023-02-28T09:06:38;100655.06;;;5.01;38.04
62402;BME280;48440;51.224;22.506;2023-02-28T09:09:09;100651.75;;;4.32;39.75
62402;BME280;48440;51.224;22.506;2023-02-28T09:11:35;100662.75;;;3.77;40.62
62402;BME280;48440;51.224;22.506;2023-02-28T09:14:01;100655.53;;;3.47;41.42
62402;BME280;48440;51.224;22.506;2023-02-28T09:16:29;100656.06;;;3.11;42.69
62402;BME280;48440;51.224;22.506;2023-02-28T09:18:56;100658.25;;;2.99;43.84
62402;BME280;48440;51.224;22.506;2023-02-28T09:21:22;100663.31;;;2.86;44.13
62402;BME280;48440;51.224;22.506;2023-02-28T09:23:51;100660.13;;;2.91;43.78
62402;BME280;48440;51.224;22.506;2023-02-28T09:26:20;100661.94;;;3.06;44.44
62402;BME280;48440;51.224;22.506;2023-02-28T09:28:48;100657.50;;;3.22;44.59
62402;BME280;48440;51.224;22.506;2023-02-28T09:31:23;100660.47;;;3.35;43.99
62402;BME280;48440;51.224;22.506;2023-02-28T09:33:50;100658.25;;;3.38;42.24
62402;BME280;48440;51.224;22.506;2023-02-28T09:36:17;100656.81;;;3.59;42.31
62402;BME280;48440;51.224;22.506;2023-02-28T09:38:43;100655.78;;;4.14;41.32
62402;BME280;48440;51.224;22.506;2023-02-28T09:41:14;100650.41;;;4.14;41.93
62402;BME280;48440;51.224;22.506;2023-02-28T09:43:47;100658.38;;;3.99;41.62
62402;BME280;48440;51.224;22.506;2023-02-28T09:46:51;100657.72;;;3.97;41.23
62402;BME280;48440;51.224;22.506;2023-02-28T09:49:43;100658.16;;;3.86;41.46
62402;BME280;48440;51.224;22.506;2023-02-28T09:52:31;100661.09;;;3.68;41.89
62402;BME280;48440;51.224;22.506;2023-02-28T09:57:45;100657.69;;;4.42;42.71
62402;BME280;48440;51.224;22.506;2023-02-28T10:00:17;100656.06;;;5.00;40.74
62402;BME280;48440;51.224;22.506;2023-02-28T10:06:41;100666.06;;;5.21;39.32
62402;BME280;48440;51.224;22.506;2023-02-28T10:09:23;100663.94;;;5.31;38.83
62402;BME280;48440;51.224;22.506;2023-02-28T10:12:14;100652.53;;;4.70;39.60
62402;BME280;48440;51.224;22.506;2023-02-28T10:14:59;100653.94;;;4.29;39.39
62402;BME280;48440;51.224;22.506;2023-02-28T10:17:39;100656.44;;;4.16;40.86
62402;BME280;48440;51.224;22.506;2023-02-28T10:20:19;100652.53;;;3.95;41.79
62402;BME280;48440;51.224;22.506;2023-02-28T10:25:47;100646.22;;;4.11;42.51
62402;BME280;48440;51.224;22.506;2023-02-28T10:28:45;100643.75;;;4.24;42.12
62402;BME280;48440;51.224;22.506;2023-02-28T10:31:19;100638.56;;;4.90;41.30
62402;BME280;48440;51.224;22.506;2023-02-28T10:33:45;100643.66;;;5.50;39.64
62402;BME280;48440;51.224;22.506;2023-02-28T10:36:23;100635.22;;;5.89;38.84
62402;BME280;48440;51.224;22.506;2023-02-28T10:38:49;100636.78;;;6.47;38.04
62402;BME280;48440;51.224;22.506;2023-02-28T10:41:35;100634.66;;;7.05;37.61
62402;BME280;48440;51.224;22.506;2023-02-28T10:44:22;100635.91;;;7.09;36.65
62402;BME280;48440;51.224;22.506;2023-02-28T10:46:49;100634.56;;;7.33;37.24
62402;BME280;48440;51.224;22.506;2023-02-28T10:49:24;100629.13;;;7.20;36.90
62402;BME280;48440;51.224;22.506;2023-02-28T10:51:54;100624.03;;;6.97;35.70
62402;BME280;48440;51.224;22.506;2023-02-28T10:54:34;100630.09;;;7.06;35.99
62402;BME280;48440;51.224;22.506;2023-02-28T10:57:20;100624.19;;;6.89;34.90
62402;BME280;48440;51.224;22.506;2023-02-28T10:59:52;100625.09;;;7.03;36.33
62402;BME280;48440;51.224;22.506;2023-02-28T11:02:33;100611.38;;;6.98;37.00
62402;BME280;48440;51.224;22.506;2023-02-28T11:04:59;100604.81;;;7.13;37.64
62402;BME280;48440;51.224;22.506;2023-02-28T11:07:26;100603.16;;;7.19;37.55
62402;BME280;48440;51.224;22.506;2023-02-28T11:09:57;100606.91;;;7.18;37.45
62402;BME280;48440;51.224;22.506;2023-02-28T11:12:27;100591.97;;;7.22;37.00
62402;BME280;48440;51.224;22.506;2023-02-28T11:15:30;100591.75;;;7.17;36.63
62402;BME280;48440;51.224;22.506;2023-02-28T11:20:40;100597.56;;;7.21;37.44
62402;BME280;48440;51.224;22.506;2023-02-28T11:23:11;100595.19;;;7.04;36.57
62402;BME280;48440;51.224;22.506;2023-02-28T11:25:51;100596.22;;;6.97;36.47
62402;BME280;48440;51.224;22.506;2023-02-28T11:28:29;100599.28;;;6.87;37.00
62402;BME280;48440;51.224;22.506;2023-02-28T11:33:29;100587.75;;;6.37;37.85
62402;BME280;48440;51.224;22.506;2023-02-28T11:36:08;100588.31;;;6.05;36.96
62402;BME280;48440;51.224;22.506;2023-02-28T11:38:35;100585.09;;;6.16;37.76
62402;BME280;48440;51.224;22.506;2023-02-28T11:41:15;100580.75;;;6.15;38.39
62402;BME280;48440;51.224;22.506;2023-02-28T11:51:47;100572.69;;;5.94;39.08
62402;BME280;48440;51.224;22.506;2023-02-28T12:00:15;100591.22;;;5.46;40.13
62402;BME280;48440;51.224;22.506;2023-02-28T12:05:46;100578.53;;;4.89;40.17
62402;BME280;48440;51.224;22.506;2023-02-28T12:08:22;100569.53;;;4.82;40.86
62402;BME280;48440;51.224;22.506;2023-02-28T12:21:56;100566.66;;;4.25;43.33
62402;BME280;48440;51.224;22.506;2023-02-28T12:24:53;100562.63;;;4.06;43.05
62402;BME280;48440;51.224;22.506;2023-02-28T12:27:24;100559.00;;;3.99;42.67
62402;BME280;48440;51.224;22.506;2023-02-28T12:30:13;100565.47;;;3.90;42.60
62402;BME280;48440;51.224;22.506;2023-02-28T12:33:11;100562.72;;;3.75;42.74
62402;BME280;48440;51.224;22.506;2023-02-28T12:35:48;100567.97;;;3.68;43.19
62402;BME280;48440;51.224;22.506;2023-02-28T12:38:28;100556.88;;;3.71;43.51
62402;BME280;48440;51.224;22.506;2023-02-28T12:41:05;100547.81;;;3.72;42.97
62402;BME280;48440;51.224;22.506;2023-02-28T12:43:38;100551.47;;;3.57;42.90
62402;BME280;48440;51.224;22.506;2023-02-28T12:46:32;100547.78;;;3.58;42.63
62402;BME280;48440;51.224;22.506;2023-02-28T12:49:06;100547.81;;;3.50;44.17
62402;BME280;48440;51.224;22.506;2023-02-28T12:51:48;100545.13;;;3.50;44.28
62402;BME280;48440;51.224;22.506;2023-02-28T12:57:05;100542.34;;;3.43;43.92
62402;BME280;48440;51.224;22.506;2023-02-28T12:59:39;100541.75;;;3.33;44.55
62402;BME280;48440;51.224;22.506;2023-02-28T13:11:07;100520.69;;;3.22;46.18
62402;BME280;48440;51.224;22.506;2023-02-28T13:13:33;100530.41;;;3.23;46.34
62402;BME280;48440;51.224;22.506;2023-02-28T13:18:44;100516.38;;;3.13;46.08
62402;BME280;48440;51.224;22.506;2023-02-28T13:21:24;100530.34;;;3.08;46.69
62402;BME280;48440;51.224;22.506;2023-02-28T13:29:05;100508.34;;;2.82;46.74
62402;BME280;48440;51.224;22.506;2023-02-28T13:39:55;100490.81;;;2.71;47.04
62402;BME280;48440;51.224;22.506;2023-02-28T13:47:55;100492.81;;;2.69;47.08
62402;BME280;48440;51.224;22.506;2023-02-28T14:00:52;100486.03;;;2.58;47.27
62402;BME280;48440;51.224;22.506;2023-02-28T14:03:51;100480.84;;;2.57;47.36
62402;BME280;48440;51.224;22.506;2023-02-28T14:06:25;100483.38;;;2.50;47.19
62402;BME280;48440;51.224;22.506;2023-02-28T14:11:55;100475.50;;;2.49;47.90
62402;BME280;48440;51.224;22.506;2023-02-28T14:17:17;100482.22;;;2.45;47.96
62402;BME280;48440;51.224;22.506;2023-02-28T14:19:46;100482.22;;;2.45;47.85
62402;BME280;48440;51.224;22.506;2023-02-28T14:31:12;100469.38;;;2.32;48.83
62402;BME280;48440;51.224;22.506;2023-02-28T14:36:52;100471.41;;;2.30;48.72
62402;BME280;48440;51.224;22.506;2023-02-28T14:39:25;100459.34;;;2.26;49.04
62402;BME280;48440;51.224;22.506;2023-02-28T14:41:58;100462.88;;;2.26;48.94
62402;BME280;48440;51.224;22.506;2023-02-28T14:44:28;100451.50;;;2.24;48.87
62402;BME280;48440;51.224;22.506;2023-02-28T14:46:54;100450.00;;;2.22;48.74
62402;BME280;48440;51.224;22.506;2023-02-28T14:49:48;100463.72;;;2.19;49.07
62402;BME280;48440;51.224;22.506;2023-02-28T14:54:45;100457.38;;;2.12;49.01
62402;BME280;48440;51.224;22.506;2023-02-28T14:57:31;100451.34;;;2.10;48.75
62402;BME280;48440;51.224;22.506;2023-02-28T15:00:09;100444.31;;;2.09;48.90
62402;BME280;48440;51.224;22.506;2023-02-28T15:02:41;100447.53;;;2.04;49.17
62402;BME280;48440;51.224;22.506;2023-02-28T15:05:25;100438.19;;;2.00;49.61
62402;BME280;48440;51.224;22.506;2023-02-28T15:11:23;100443.72;;;1.98;49.62
62402;BME280;48440;51.224;22.506;2023-02-28T15:13:57;100450.41;;;1.94;49.77
62402;BME280;48440;51.224;22.506;2023-02-28T15:18:59;100444.41;;;1.84;50.29
62402;BME280;48440;51.224;22.506;2023-02-28T15:24:07;100437.19;;;1.85;49.95
62402;BME280;48440;51.224;22.506;2023-02-28T15:26:40;100438.75;;;1.79;50.05
62402;BME280;48440;51.224;22.506;2023-02-28T15:29:19;100434.06;;;1.73;50.70
62402;BME280;48440;51.224;22.506;2023-02-28T15:31:49;100425.69;;;1.68;50.59
62402;BME280;48440;51.224;22.506;2023-02-28T15:34:36;100433.91;;;1.66;51.14
62402;BME280;48440;51.224;22.506;2023-02-28T15:39:50;100425.88;;;1.58;51.76
62402;BME280;48440;51.224;22.506;2023-02-28T15:42:21;100434.28;;;1.55;51.44
62402;BME280;48440;51.224;22.506;2023-02-28T15:44:48;100430.75;;;1.55;51.71
62402;BME280;48440;51.224;22.506;2023-02-28T15:47:20;100433.09;;;1.50;51.18
62402;BME280;48440;51.224;22.506;2023-02-28T15:52:39;100425.56;;;1.45;51.95
62402;BME280;48440;51.224;22.506;2023-02-28T15:55:27;100434.09;;;1.41;51.60
62402;BME280;48440;51.224;22.506;2023-02-28T15:57:57;100425.91;;;1.34;52.04
62402;BME280;48440;51.224;22.506;2023-02-28T16:00:31;100421.56;;;1.33;51.95
62402;BME280;48440;51.224;22.506;2023-02-28T16:04:03;100424.22;;;1.33;51.95
62402;BME280;48440;51.224;22.506;2023-02-28T16:09:04;100430.94;;;1.29;51.58
62402;BME280;48440;51.224;22.506;2023-02-28T16:11:30;100423.06;;;1.19;51.70
62402;BME280;48440;51.224;22.506;2023-02-28T16:14:22;100420.56;;;1.18;51.67
62402;BME280;48440;51.224;22.506;2023-02-28T16:16:51;100429.75;;;1.15;52.17
62402;BME280;48440;51.224;22.506;2023-02-28T16:19:27;100428.56;;;1.10;52.94
62402;BME280;48440;51.224;22.506;2023-02-28T16:21:53;100435.25;;;1.06;52.77
62402;BME280;48440;51.224;22.506;2023-02-28T16:24:18;100445.63;;;1.00;53.04
62402;BME280;48440;51.224;22.506;2023-02-28T16:26:47;100440.78;;;0.96;53.54
62402;BME280;48440;51.224;22.506;2023-02-28T16:29:24;100442.94;;;0.92;53.05
62402;BME280;48440;51.224;22.506;2023-02-28T16:31:50;100446.28;;;0.94;53.30
62402;BME280;48440;51.224;22.506;2023-02-28T16:34:15;100457.66;;;0.96;53.23